Time,TemperatureF,DewpointF,PressureIn,WindDirection,WindDirectionDegrees,WindSpeedMPH,WindSpeedGustMPH,Humidity,HourlyPrecipIn,Conditions,Clouds,dailyrainin,SoftwareType,DateUTC
2013-07-06 00:03:00,77.2,62.0,29.87,South,188,1.0,6.0,60,0.00,,,0.00,weatherlink.com 1.10,2013-07-06 05:03:00,
2013-07-06 00:18:00,76.8,62.0,29.88,South,184,0.0,2.0,61,0.00,,,0.00,weatherlink.com 1.10,2013-07-06 05:18:00,
2013-07-06 00:33:00,76.3,63.0,29.87,SSW,209,0.0,1.0,63,0.00,,,0.00,weatherlink.com 1.10,2013-07-06 05:33:00,
2013-07-06 00:48:00,75.9,64.0,29.88,SSW,198,0.0,1.0,66,0.00,,,0.00,weatherlink.com 1.10,2013-07-06 05:48:00,
2013-07-06 01:03:00,75.3,64.0,29.88,SSW,207,0.0,0.0,68,0.00,,,0.00,weatherlink.com 1.10,2013-07-06 06:03:00,
2013-07-06 01:18:00,74.9,65.0,29.88,SSW,204,0.0,0.0,72,0.00,,,0.00,weatherlink.com 1.10,2013-07-06 06:18:00,
2013-07-06 01:33:00,74.9,66.0,29.87,SSW,197,0.0,1.0,73,0.00,,,0.00,weatherlink.com 1.10,2013-07-06 06:33:00,
2013-07-06 01:48:00,74.8,66.0,29.88,South,191,0.0,0.0,74,0.00,,,0.00,weatherlink.com 1.10,2013-07-06 06:48:00,
2013-07-06 02:03:00,74.7,66.0,29.88,SSE,165,0.0,1.0,75,0.00,,,0.00,weatherlink.com 1.10,2013-07-06 07:03:00,
2013-07-06 02:18:00,74.3,66.0,29.87,SSW,198,0.0,1.0,75,0.00,,,0.00,weatherlink.com 1.10,2013-07-06 07:18:00,
2013-07-06 02:33:00,73.9,66.0,29.88,SSW,200,0.0,0.0,76,0.00,,,0.00,weatherlink.com 1.10,2013-07-06 07:33:00,
2013-07-06 02:48:00,73.2,66.0,29.88,SW,215,0.0,0.0,78,0.00,,,0.00,weatherlink.com 1.10,2013-07-06 07:48:00,
2013-07-06 03:03:00,71.7,65.0,29.87,SW,215,0.0,0.0,78,0.00,,,0.00,weatherlink.com 1.10,2013-07-06 08:03:00,
2013-07-06 03:18:00,70.1,64.0,29.87,SW,215,0.0,0.0,82,0.00,,,0.00,weatherlink.com 1.10,2013-07-06 08:18:00,
2013-07-06 03:34:00,68.8,64.0,29.87,SW,215,0.0,0.0,84,0.00,,,0.00,weatherlink.com 1.10,2013-07-06 08:34:00,
2013-07-06 03:49:00,67.7,63.0,29.87,SW,215,0.0,0.0,84,0.00,,,0.00,weatherlink.com 1.10,2013-07-06 08:49:00,
2013-07-06 04:04:00,67.0,63.0,29.86,SW,215,0.0,0.0,87,0.00,,,0.00,weatherlink.com 1.10,2013-07-06 09:04:00,
2013-07-06 04:19:00,66.2,63.0,29.86,SW,215,0.0,0.0,88,0.00,,,0.00,weatherlink.com 1.10,2013-07-06 09:19:00,
2013-07-06 04:34:00,65.7,62.0,29.86,SW,214,0.0,0.0,87,0.00,,,0.00,weatherlink.com 1.10,2013-07-06 09:34:00,
2013-07-06 04:49:00,65.2,62.0,29.86,SW,214,0.0,0.0,89,0.00,,,0.00,weatherlink.com 1.10,2013-07-06 09:49:00,
2013-07-06 05:04:00,64.7,62.0,29.86,SW,214,0.0,0.0,90,0.00,,,0.00,weatherlink.com 1.10,2013-07-06 10:04:00,
2013-07-06 05:19:00,64.3,62.0,29.86,SW,215,0.0,0.0,91,0.00,,,0.00,weatherlink.com 1.10,2013-07-06 10:19:00,
2013-07-06 05:34:00,63.8,61.0,29.86,SW,215,0.0,0.0,90,0.00,,,0.00,weatherlink.com 1.10,2013-07-06 10:34:00,
2013-07-06 05:49:00,63.5,61.0,29.86,SW,214,0.0,0.0,91,0.00,,,0.00,weatherlink.com 1.10,2013-07-06 10:49:00,
2013-07-06 06:04:00,63.0,61.0,29.86,SW,215,0.0,0.0,92,0.00,,,0.00,weatherlink.com 1.10,2013-07-06 11:04:00,
2013-07-06 06:19:00,62.9,61.0,29.86,SW,215,0.0,0.0,93,0.00,,,0.00,weatherlink.com 1.10,2013-07-06 11:19:00,
2013-07-06 06:34:00,62.5,61.0,29.86,SW,214,0.0,0.0,93,0.00,,,0.00,weatherlink.com 1.10,2013-07-06 11:34:00,
2013-07-06 06:49:00,62.0,60.0,29.86,SW,215,0.0,0.0,93,0.00,,,0.00,weatherlink.com 1.10,2013-07-06 11:49:00,
2013-07-06 07:04:00,62.4,60.0,29.86,SW,214,0.0,0.0,93,0.00,,,0.00,weatherlink.com 1.10,2013-07-06 12:04:00,
2013-07-06 07:19:00,62.6,61.0,29.86,SW,215,0.0,0.0,93,0.00,,,0.00,weatherlink.com 1.10,2013-07-06 12:19:00,
2013-07-06 07:34:00,64.4,62.0,29.86,SW,214,0.0,0.0,93,0.00,,,0.00,weatherlink.com 1.10,2013-07-06 12:34:00,
2013-07-06 07:49:00,68.1,65.0,29.86,SW,215,0.0,0.0,88,0.00,,,0.00,weatherlink.com 1.10,2013-07-06 12:49:00,
2013-07-06 08:04:00,69.4,66.0,29.86,SW,216,0.0,1.0,88,0.00,,,0.00,weatherlink.com 1.10,2013-07-06 13:04:00,
2013-07-06 08:19:00,73.9,69.0,29.87,SW,217,0.0,1.0,85,0.00,,,0.00,weatherlink.com 1.10,2013-07-06 13:19:00,
2013-07-06 08:34:00,78.1,69.0,29.86,SW,217,2.0,2.0,74,0.00,,,0.00,weatherlink.com 1.10,2013-07-06 13:34:00,
2013-07-06 08:49:00,77.4,70.0,29.86,SSE,150,0.0,5.0,77,0.00,,,0.00,weatherlink.com 1.10,2013-07-06 13:49:00,
2013-07-06 09:04:00,77.9,69.0,29.86,SSW,194,2.0,3.0,74,0.00,,,0.00,weatherlink.com 1.10,2013-07-06 14:04:00,
2013-07-06 09:19:00,78.7,69.0,29.86,SE,141,1.0,6.0,71,0.00,,,0.00,weatherlink.com 1.10,2013-07-06 14:19:00,
2013-07-06 09:34:00,80.8,67.0,29.86,ESE,107,1.0,4.0,64,0.00,,,0.00,weatherlink.com 1.10,2013-07-06 14:34:00,
2013-07-06 09:49:00,80.6,68.0,29.86,SW,224,0.0,3.0,65,0.00,,,0.00,weatherlink.com 1.10,2013-07-06 14:49:00,
2013-07-06 10:04:00,81.6,68.0,29.86,SE,134,1.0,5.0,64,0.00,,,0.00,weatherlink.com 1.10,2013-07-06 15:04:00,
2013-07-06 10:19:00,82.5,67.0,29.86,SE,140,3.0,10.0,59,0.00,,,0.00,weatherlink.com 1.10,2013-07-06 15:19:00,
2013-07-06 10:34:00,84.0,67.0,29.86,South,183,7.0,18.0,56,0.00,,,0.00,weatherlink.com 1.10,2013-07-06 15:34:00,
2013-07-06 10:49:00,84.1,66.0,29.86,SSW,203,0.0,8.0,54,0.00,,,0.00,weatherlink.com 1.10,2013-07-06 15:49:00,
2013-07-06 11:04:00,84.4,66.0,29.86,SW,235,4.0,11.0,54,0.00,,,0.00,weatherlink.com 1.10,2013-07-06 16:04:00,
2013-07-06 11:19:00,85.9,66.0,29.86,SSW,194,4.0,8.0,51,0.00,,,0.00,weatherlink.com 1.10,2013-07-06 16:19:00,
2013-07-06 11:34:00,86.4,64.0,29.86,SW,219,2.0,5.0,48,0.00,,,0.00,weatherlink.com 1.10,2013-07-06 16:34:00,
2013-07-06 11:49:00,87.2,65.0,29.86,SSE,163,1.0,7.0,48,0.00,,,0.00,weatherlink.com 1.10,2013-07-06 16:49:00,
2013-07-06 12:20:00,88.1,66.0,29.85,South,188,2.0,23.0,48,0.00,,,0.00,weatherlink.com 1.10,2013-07-06 17:20:00,
2013-07-06 12:35:00,88.7,63.0,29.85,East,94,0.0,34.0,43,0.00,,,0.00,weatherlink.com 1.10,2013-07-06 17:35:00,
2013-07-06 12:50:00,89.2,64.0,29.84,SSW,198,0.0,23.0,43,0.00,,,0.00,weatherlink.com 1.10,2013-07-06 17:50:00,
2013-07-06 13:35:00,90.6,63.0,29.83,NE,48,0.0,0.0,40,0.00,,,0.00,weatherlink.com 1.10,2013-07-06 18:35:00,
2013-07-06 13:50:00,91.0,64.0,29.82,South,188,5.0,19.0,41,0.00,,,0.00,weatherlink.com 1.10,2013-07-06 18:50:00,
2013-07-06 14:05:00,91.1,63.0,29.82,South,172,12.0,12.0,39,0.00,,,0.00,weatherlink.com 1.10,2013-07-06 19:05:00,
2013-07-06 14:20:00,91.4,62.0,29.82,SSW,210,3.0,22.0,38,0.00,,,0.00,weatherlink.com 1.10,2013-07-06 19:20:00,
2013-07-06 14:35:00,91.5,62.0,29.81,SSW,201,0.0,7.0,37,0.00,,,0.00,weatherlink.com 1.10,2013-07-06 19:35:00,
2013-07-06 15:20:00,92.2,62.0,29.80,ENE,63,0.0,0.0,36,0.00,,,0.00,weatherlink.com 1.10,2013-07-06 20:20:00,
2013-07-06 15:35:00,90.9,60.0,29.80,ESE,123,0.0,0.0,36,0.00,,,0.00,weatherlink.com 1.10,2013-07-06 20:35:00,
2013-07-06 16:05:00,91.0,61.0,29.79,NE,39,0.0,0.0,36,0.00,,,0.00,weatherlink.com 1.10,2013-07-06 21:05:00,
2013-07-06 16:20:00,91.3,61.0,29.78,NNE,32,0.0,0.0,36,0.00,,,0.00,weatherlink.com 1.10,2013-07-06 21:20:00,
2013-07-06 16:50:00,91.9,61.0,29.78,NE,42,0.0,0.0,36,0.00,,,0.00,weatherlink.com 1.10,2013-07-06 21:50:00,
2013-07-06 17:05:00,90.5,61.0,29.77,SSE,160,0.0,0.0,37,0.00,,,0.00,weatherlink.com 1.10,2013-07-06 22:05:00,
2013-07-06 17:20:00,91.9,61.0,29.77,South,187,0.0,0.0,35,0.00,,,0.00,weatherlink.com 1.10,2013-07-06 22:20:00,
2013-07-06 17:35:00,90.9,60.0,29.77,SSW,211,0.0,0.0,35,0.00,,,0.00,weatherlink.com 1.10,2013-07-06 22:35:00,
2013-07-06 18:05:00,92.1,60.0,29.76,SW,217,0.0,0.0,34,0.00,,,0.00,weatherlink.com 1.10,2013-07-06 23:05:00,
2013-07-06 18:20:00,91.8,61.0,29.76,SE,139,0.0,0.0,35,0.00,,,0.00,weatherlink.com 1.10,2013-07-06 23:20:00,
2013-07-06 18:35:00,92.2,60.0,29.76,SSE,156,0.0,0.0,34,0.00,,,0.00,weatherlink.com 1.10,2013-07-06 23:35:00,
2013-07-06 19:05:00,90.0,60.0,29.76,SSW,195,0.0,0.0,36,0.00,,,0.00,weatherlink.com 1.10,2013-07-07 00:05:00,
2013-07-06 19:20:00,90.5,59.0,29.76,SSE,152,0.0,0.0,35,0.00,,,0.00,weatherlink.com 1.10,2013-07-07 00:20:00,
2013-07-06 19:35:00,89.2,59.0,29.76,SSW,201,0.0,0.0,36,0.00,,,0.00,weatherlink.com 1.10,2013-07-07 00:35:00,
2013-07-06 20:05:00,86.3,59.0,29.77,SSW,207,0.0,0.0,40,0.00,,,0.00,weatherlink.com 1.10,2013-07-07 01:05:00,
2013-07-06 20:50:00,80.2,61.0,29.78,SW,221,0.0,0.0,52,0.00,,,0.00,weatherlink.com 1.10,2013-07-07 01:50:00,
2013-07-06 21:05:00,77.9,60.0,29.78,West,259,0.0,0.0,55,0.00,,,0.00,weatherlink.com 1.10,2013-07-07 02:05:00,
2013-07-06 21:20:00,77.1,61.0,29.79,West,278,0.0,0.0,57,0.00,,,0.00,weatherlink.com 1.10,2013-07-07 02:20:00,
2013-07-06 21:35:00,75.9,60.0,29.79,West,278,0.0,0.0,59,0.00,,,0.00,weatherlink.com 1.10,2013-07-07 02:35:00,
2013-07-06 21:50:00,74.8,61.0,29.80,West,278,0.0,0.0,62,0.00,,,0.00,weatherlink.com 1.10,2013-07-07 02:50:00,
2013-07-06 22:05:00,74.1,60.0,29.81,West,278,0.0,0.0,62,0.00,,,0.00,weatherlink.com 1.10,2013-07-07 03:05:00,
2013-07-06 23:05:00,71.9,61.0,29.83,NW,314,1.0,2.0,69,0.00,,,0.00,weatherlink.com 1.10,2013-07-07 04:05:00,
2013-07-06 23:21:00,74.4,63.0,29.83,SW,221,1.0,4.0,67,0.00,,,0.00,weatherlink.com 1.10,2013-07-07 04:21:00,
2013-07-06 23:36:00,77.1,63.0,29.84,SSE,154,0.0,2.0,62,0.00,,,0.00,weatherlink.com 1.10,2013-07-07 04:36:00,
2013-07-06 23:51:00,77.3,63.0,29.84,SSE,156,0.0,0.0,62,0.00,,,0.00,weatherlink.com 1.10,2013-07-07 04:51:00,